createdAt,value
2018-07-08T00:02:23.676Z,18.60
2018-07-08T00:04:56.451Z,18.60
2018-07-08T00:07:24.356Z,18.60
2018-07-08T00:09:52.285Z,18.50
2018-07-08T00:12:20.235Z,18.50
2018-07-08T00:14:48.204Z,18.40
2018-07-08T00:17:16.089Z,18.40
2018-07-08T00:19:51.679Z,18.40
2018-07-08T00:22:19.643Z,18.30
2018-07-08T00:24:47.559Z,18.30
2018-07-08T00:27:15.512Z,18.30
2018-07-08T00:29:50.514Z,18.20
2018-07-08T00:32:18.404Z,18.10
2018-07-08T00:34:46.380Z,18.10
2018-07-08T00:37:14.275Z,18.00
2018-07-08T00:39:43.259Z,17.90
2018-07-08T00:42:11.171Z,17.80
2018-07-08T00:44:40.128Z,17.80
2018-07-08T00:47:07.998Z,18.00
2018-07-08T00:49:41.389Z,18.00
2018-07-08T00:52:09.275Z,18.00
2018-07-08T00:54:37.282Z,18.00
2018-07-08T00:57:08.495Z,17.80
2018-07-08T00:59:36.286Z,17.70
2018-07-08T01:02:04.067Z,17.50
2018-07-08T01:04:31.847Z,17.40
2018-07-08T01:06:59.677Z,17.30
2018-07-08T01:09:27.508Z,17.20
2018-07-08T01:11:55.258Z,17.00
2018-07-08T01:17:43.915Z,16.70
2018-07-08T01:20:11.900Z,16.70
2018-07-08T01:22:39.878Z,16.70
2018-07-08T01:25:11.403Z,16.60
2018-07-08T01:27:39.672Z,16.50
2018-07-08T01:30:08.022Z,16.40
2018-07-08T01:32:36.076Z,16.50
2018-07-08T01:35:04.051Z,16.40
2018-07-08T01:37:32.403Z,16.40
2018-07-08T01:40:00.336Z,16.40
2018-07-08T01:42:29.248Z,16.50
2018-07-08T01:44:57.234Z,16.60
2018-07-08T01:47:25.750Z,16.50
2018-07-08T01:49:53.689Z,16.50
2018-07-08T01:52:22.811Z,16.40
2018-07-08T01:54:50.752Z,16.40
2018-07-08T01:57:18.748Z,16.40
2018-07-08T01:59:47.537Z,16.30
2018-07-08T02:02:16.581Z,16.40
2018-07-08T02:04:44.577Z,16.50
2018-07-08T02:07:12.876Z,16.50
2018-07-08T02:09:40.766Z,16.60
2018-07-08T02:12:08.897Z,16.70
2018-07-08T02:14:37.026Z,16.80
2018-07-08T02:17:04.998Z,16.90
2018-07-08T02:19:32.916Z,17.00
2018-07-08T02:22:00.708Z,17.10
2018-07-08T02:24:28.539Z,17.00
2018-07-08T02:26:56.373Z,16.90
2018-07-08T02:29:24.214Z,16.70
2018-07-08T02:31:52.169Z,16.80
2018-07-08T02:34:20.323Z,16.60
2018-07-08T02:36:48.209Z,16.50
2018-07-08T02:39:16.146Z,16.40
2018-07-08T02:41:44.002Z,16.50
2018-07-08T02:44:11.831Z,16.50
2018-07-08T02:46:39.669Z,16.40
2018-07-08T02:49:07.548Z,16.30
2018-07-08T02:51:35.503Z,16.20
2018-07-08T02:54:03.444Z,16.10
2018-07-08T03:00:14.887Z,16.00
2018-07-08T03:02:44.940Z,15.90
2018-07-08T03:05:12.826Z,16.00
2018-07-08T03:07:41.811Z,16.10
2018-07-08T03:10:09.699Z,16.20
2018-07-08T03:12:37.735Z,16.40
2018-07-08T03:15:05.865Z,16.30
2018-07-08T03:17:33.880Z,16.30
2018-07-08T03:20:02.999Z,16.10
2018-07-08T03:22:30.944Z,16.00
2018-07-08T03:24:58.854Z,15.80
2018-07-08T03:27:27.832Z,15.70
2018-07-08T03:29:55.742Z,15.60
2018-07-08T03:32:24.655Z,15.60
2018-07-08T03:34:52.554Z,15.50
2018-07-08T03:37:20.445Z,15.40
2018-07-08T03:39:48.353Z,15.20
2018-07-08T03:42:19.460Z,15.10
2018-07-08T03:44:47.359Z,15.00
2018-07-08T03:47:17.305Z,15.00
2018-07-08T03:49:45.185Z,15.00
2018-07-08T03:52:13.154Z,15.00
2018-07-08T03:54:41.020Z,15.20
2018-07-08T03:57:09.092Z,15.30
2018-07-08T03:59:37.136Z,15.40
2018-07-08T04:02:04.941Z,15.60
2018-07-08T04:04:32.764Z,15.80
2018-07-08T04:07:00.532Z,16.00
2018-07-08T04:09:28.298Z,16.00
2018-07-08T04:11:56.104Z,16.10
2018-07-08T04:14:23.900Z,16.30
2018-07-08T04:16:51.624Z,16.40
2018-07-08T04:19:19.392Z,16.50
2018-07-08T04:21:47.221Z,16.60
2018-07-08T04:24:14.981Z,16.70
2018-07-08T04:26:42.770Z,16.60
2018-07-08T04:29:10.612Z,16.60
2018-07-08T04:35:13.629Z,16.70
2018-07-08T04:37:41.435Z,16.70
2018-07-08T04:40:09.239Z,16.80
2018-07-08T04:42:37.004Z,16.80
2018-07-08T04:45:04.755Z,16.80
2018-07-08T04:47:32.514Z,16.80
2018-07-08T04:50:00.289Z,16.80
2018-07-08T04:52:28.068Z,16.70
2018-07-08T04:54:56.286Z,16.60
2018-07-08T04:57:24.114Z,16.60
2018-07-08T04:59:51.917Z,16.60
2018-07-08T05:02:19.712Z,16.70
2018-07-08T05:04:53.173Z,16.80
2018-07-08T05:07:21.011Z,17.00
2018-07-08T05:09:48.774Z,17.10
2018-07-08T05:12:16.672Z,17.20
2018-07-08T05:14:44.459Z,17.30
2018-07-08T05:17:12.396Z,17.40
2018-07-08T05:19:40.414Z,17.50
2018-07-08T05:22:08.251Z,17.70
2018-07-08T05:24:36.017Z,17.80
2018-07-08T05:27:03.950Z,17.80
2018-07-08T05:29:31.728Z,18.00
2018-07-08T05:31:59.613Z,18.00
2018-07-08T05:34:48.192Z,18.00
2018-07-08T05:37:15.981Z,17.90
2018-07-08T05:39:43.801Z,17.90
2018-07-08T05:42:11.605Z,18.20
2018-07-08T05:44:39.431Z,18.40
2018-07-08T05:47:07.332Z,18.50
2018-07-08T05:49:35.257Z,18.30
2018-07-08T05:52:03.094Z,18.10
2018-07-08T05:54:30.963Z,18.00
2018-07-08T05:56:58.809Z,18.00
2018-07-08T06:02:14.712Z,18.10
2018-07-08T06:04:42.569Z,18.30
2018-07-08T06:07:10.398Z,18.50
2018-07-08T06:09:41.040Z,18.60
2018-07-08T06:12:09.012Z,18.90
2018-07-08T06:14:36.926Z,19.20
2018-07-08T06:17:45.889Z,19.60
2018-07-08T06:20:13.708Z,19.70
2018-07-08T06:22:41.505Z,19.50
2018-07-08T06:25:09.325Z,19.50
2018-07-08T06:27:37.168Z,19.10
2018-07-08T06:30:05.144Z,19.00
2018-07-08T06:32:32.956Z,18.80
2018-07-08T06:35:00.848Z,19.00
2018-07-08T06:37:28.660Z,19.30
2018-07-08T06:39:56.618Z,19.30
2018-07-08T06:42:24.460Z,19.60
2018-07-08T06:44:52.335Z,19.90
2018-07-08T06:47:20.143Z,20.10
2018-07-08T06:49:47.966Z,20.50
2018-07-08T06:52:15.968Z,20.50
2018-07-08T06:55:05.960Z,20.40
2018-07-08T06:57:33.714Z,20.70
2018-07-08T07:00:01.564Z,21.20
2018-07-08T07:02:29.400Z,21.30
2018-07-08T07:04:58.318Z,21.20
2018-07-08T07:07:26.013Z,20.80
2018-07-08T07:09:53.838Z,21.30
2018-07-08T07:12:21.631Z,21.20
2018-07-08T07:14:49.389Z,21.00
2018-07-08T07:17:17.185Z,21.20
2018-07-08T07:19:45.141Z,21.40
2018-07-08T07:22:12.935Z,21.40
2018-07-08T07:24:40.869Z,21.30
2018-07-08T07:27:08.892Z,21.90
2018-07-08T07:29:36.708Z,21.60
2018-07-08T07:34:43.067Z,21.50
2018-07-08T07:37:11.057Z,21.90
2018-07-08T07:39:38.916Z,21.90
2018-07-08T07:42:06.774Z,22.20
2018-07-08T07:44:34.684Z,22.30
2018-07-08T07:47:02.512Z,22.10
2018-07-08T07:49:30.358Z,22.00
2018-07-08T07:51:58.236Z,21.90
2018-07-08T07:54:26.271Z,22.40
2018-07-08T07:56:54.015Z,22.50
2018-07-08T07:59:21.845Z,22.50
2018-07-08T08:01:49.609Z,22.50
2018-07-08T08:04:17.541Z,22.20
2018-07-08T08:06:45.439Z,22.40
2018-07-08T08:09:13.811Z,22.60
2018-07-08T08:11:41.974Z,23.00
2018-07-08T08:14:09.798Z,22.90
2018-07-08T08:16:38.001Z,23.10
2018-07-08T08:19:05.922Z,23.00
2018-07-08T08:21:33.870Z,23.10
2018-07-08T08:24:01.712Z,23.40
2018-07-08T08:26:29.892Z,23.40
2018-07-08T08:28:57.718Z,23.00
2018-07-08T08:31:25.551Z,23.00
2018-07-08T08:35:06.464Z,23.00
2018-07-08T08:37:36.387Z,23.60
2018-07-08T08:40:05.895Z,23.90
2018-07-08T08:42:33.741Z,23.80
2018-07-08T08:45:01.891Z,24.20
2018-07-08T08:47:30.236Z,24.30
2018-07-08T08:49:58.135Z,24.20
2018-07-08T08:52:26.035Z,24.30
2018-07-08T08:54:54.133Z,23.60
2018-07-08T08:57:21.889Z,23.70
2018-07-08T08:59:49.788Z,24.00
2018-07-08T09:02:17.616Z,24.60
2018-07-08T09:05:15.171Z,24.80
2018-07-08T09:07:43.045Z,24.50
2018-07-08T09:10:10.832Z,24.90
2018-07-08T09:12:38.605Z,24.90
2018-07-08T09:15:06.464Z,24.60
2018-07-08T09:17:34.239Z,24.70
2018-07-08T09:20:02.023Z,24.90
2018-07-08T09:22:29.788Z,25.20
2018-07-08T09:24:57.593Z,25.20
2018-07-08T09:27:25.350Z,24.60
2018-07-08T09:29:54.136Z,24.50
2018-07-08T09:35:00.813Z,24.80
2018-07-08T09:37:28.562Z,25.10
2018-07-08T09:39:56.390Z,25.50
2018-07-08T09:42:24.181Z,25.70
2018-07-08T09:44:59.754Z,26.30
2018-07-08T09:47:27.704Z,25.20
2018-07-08T09:49:55.528Z,24.90
2018-07-08T09:52:23.339Z,25.00
2018-07-08T09:54:51.170Z,25.20
2018-07-08T09:57:19.933Z,25.00
2018-07-08T09:59:47.693Z,25.30
2018-07-08T10:02:16.659Z,25.60
2018-07-08T10:04:44.665Z,25.20
2018-07-08T10:07:12.461Z,25.10
2018-07-08T10:09:40.247Z,25.20
2018-07-08T10:12:08.092Z,25.20
2018-07-08T10:14:36.894Z,25.40
2018-07-08T10:17:04.973Z,25.90
2018-07-08T10:19:33.387Z,26.40
2018-07-08T10:22:02.154Z,26.30
2018-07-08T10:27:13.570Z,25.80
2018-07-08T10:29:41.365Z,25.70
2018-07-08T10:32:09.160Z,26.20
2018-07-08T10:34:52.636Z,26.40
2018-07-08T10:37:21.222Z,26.60
2018-07-08T10:39:48.954Z,26.90
2018-07-08T10:42:16.731Z,26.30
2018-07-08T10:44:44.643Z,26.80
2018-07-08T10:47:12.529Z,27.40
2018-07-08T10:49:40.306Z,26.40
2018-07-08T10:52:08.099Z,26.60
2018-07-08T10:54:35.887Z,27.30
2018-07-08T10:57:03.683Z,27.10
2018-07-08T10:59:31.481Z,27.30
2018-07-08T11:01:59.278Z,27.50
2018-07-08T11:05:04.656Z,27.40
2018-07-08T11:07:33.233Z,27.40
2018-07-08T11:10:01.061Z,27.30
2018-07-08T11:12:28.828Z,27.00
2018-07-08T11:14:56.620Z,27.40
2018-07-08T11:17:24.428Z,27.70
2018-07-08T11:19:52.408Z,27.50
2018-07-08T11:22:20.218Z,27.00
2018-07-08T11:24:48.028Z,26.90
2018-07-08T11:27:15.812Z,26.70
2018-07-08T11:29:43.675Z,26.90
2018-07-08T11:32:11.668Z,27.10
2018-07-08T11:34:39.709Z,27.00
2018-07-08T11:37:07.688Z,27.20
2018-07-08T11:39:35.572Z,27.40
2018-07-08T11:42:04.818Z,27.40
2018-07-08T11:45:11.965Z,27.20
2018-07-08T11:47:48.229Z,27.50
2018-07-08T11:50:16.196Z,27.60
2018-07-08T11:52:44.185Z,27.90
2018-07-08T11:55:12.071Z,27.70
2018-07-08T11:57:42.881Z,27.30
2018-07-08T12:00:10.865Z,27.10
2018-07-08T12:02:39.913Z,27.40
2018-07-08T12:05:07.871Z,27.80
2018-07-08T12:07:35.968Z,28.30
2018-07-08T12:10:04.038Z,28.20
2018-07-08T12:12:32.207Z,28.20
2018-07-08T12:15:00.137Z,28.40
2018-07-08T12:17:28.230Z,29.00
2018-07-08T12:19:56.167Z,28.80
2018-07-08T12:22:24.377Z,28.50
2018-07-08T12:24:52.340Z,28.40
2018-07-08T12:27:20.421Z,28.50
2018-07-08T12:29:48.351Z,28.50
2018-07-08T12:32:16.389Z,28.60
2018-07-08T12:34:45.102Z,28.10
2018-07-08T12:37:13.954Z,28.00
2018-07-08T12:39:41.792Z,28.00
2018-07-08T12:42:09.542Z,28.10
2018-07-08T12:44:37.431Z,28.20
2018-07-08T12:47:05.102Z,28.20
2018-07-08T12:49:32.872Z,28.50
2018-07-08T12:52:01.691Z,28.10
2018-07-08T12:54:29.450Z,27.90
2018-07-08T12:56:57.227Z,28.40
2018-07-08T12:59:24.986Z,28.80
2018-07-08T13:01:52.798Z,28.80
2018-07-08T13:04:28.320Z,28.80
2018-07-08T13:06:56.239Z,28.40
2018-07-08T13:09:24.315Z,28.60
2018-07-08T13:11:52.326Z,28.70
2018-07-08T13:14:20.314Z,29.30
2018-07-08T13:16:48.259Z,28.90
2018-07-08T13:19:16.232Z,29.00
2018-07-08T13:21:44.127Z,28.50
2018-07-08T13:24:13.827Z,28.80
2018-07-08T13:26:41.773Z,29.20
2018-07-08T13:29:13.422Z,28.80
2018-07-08T13:31:41.339Z,29.20
2018-07-08T13:34:09.317Z,29.20
2018-07-08T13:36:37.252Z,29.40
2018-07-08T13:39:06.938Z,29.60
2018-07-08T13:41:34.969Z,29.50
2018-07-08T13:44:03.043Z,29.50
2018-07-08T13:46:30.951Z,29.30
2018-07-08T13:48:59.124Z,29.20
2018-07-08T13:51:27.403Z,29.00
2018-07-08T13:53:55.510Z,29.20
2018-07-08T13:56:23.452Z,30.00
2018-07-08T13:58:51.625Z,30.00
2018-07-08T14:01:19.562Z,29.50
2018-07-08T14:03:47.594Z,29.40
2018-07-08T14:27:44.634Z,28.20
2018-07-08T14:30:13.577Z,28.60
2018-07-08T14:32:41.477Z,28.40
2018-07-08T14:35:10.389Z,28.70
2018-07-08T14:37:38.292Z,28.80
2018-07-08T14:40:06.450Z,28.70
2018-07-08T14:42:34.339Z,28.60
2018-07-08T14:45:02.229Z,28.90
2018-07-08T14:47:30.065Z,28.90
2018-07-08T14:49:57.926Z,28.80
2018-07-08T14:52:25.701Z,28.80
2018-07-08T14:54:56.917Z,28.30
2018-07-08T14:57:24.734Z,27.90
2018-07-08T14:59:52.635Z,28.00
2018-07-08T15:02:20.555Z,27.90
2018-07-08T15:04:48.575Z,27.60
2018-07-08T15:07:16.389Z,27.80
2018-07-08T15:10:28.099Z,27.80
2018-07-08T15:12:55.974Z,27.70
2018-07-08T15:15:23.876Z,27.70
2018-07-08T15:17:51.952Z,28.10
2018-07-08T15:20:19.727Z,28.30
2018-07-08T15:22:47.549Z,28.00
2018-07-08T15:25:17.407Z,27.30
2018-07-08T15:27:45.316Z,27.20
2018-07-08T15:30:13.165Z,27.20
2018-07-08T15:32:41.019Z,27.00
2018-07-08T15:35:08.823Z,27.40
2018-07-08T15:37:36.974Z,27.10
2018-07-08T15:40:05.026Z,27.30
2018-07-08T15:42:33.025Z,27.40
2018-07-08T15:45:00.935Z,27.20
2018-07-08T15:47:28.791Z,27.20
2018-07-08T15:49:56.868Z,26.70
2018-07-08T15:52:25.703Z,26.90
2018-07-08T15:54:53.741Z,26.60
2018-07-08T15:57:21.568Z,26.30
2018-07-08T15:59:49.414Z,26.40
2018-07-08T16:02:17.233Z,26.60
2018-07-08T16:05:21.867Z,26.80
2018-07-08T16:11:24.358Z,26.70
2018-07-08T16:13:52.116Z,26.30
2018-07-08T16:16:19.911Z,26.60
2018-07-08T16:18:47.938Z,26.40
2018-07-08T16:21:15.625Z,26.10
2018-07-08T16:23:43.782Z,26.00
2018-07-08T16:26:11.582Z,25.90
2018-07-08T16:28:39.420Z,25.90
2018-07-08T16:31:07.244Z,25.90
2018-07-08T16:33:35.440Z,26.30
2018-07-08T16:36:04.366Z,26.50
2018-07-08T16:38:32.156Z,26.60
2018-07-08T16:40:59.958Z,26.20
2018-07-08T16:43:28.055Z,26.20
2018-07-08T16:45:55.849Z,26.30
2018-07-08T16:48:24.066Z,26.30
2018-07-08T16:50:51.828Z,26.10
2018-07-08T16:53:19.602Z,25.70
2018-07-08T16:55:47.483Z,25.60
2018-07-08T16:58:15.338Z,26.00
2018-07-08T17:00:45.108Z,26.10
2018-07-08T17:03:12.870Z,25.60
2018-07-08T17:05:40.719Z,25.60
2018-07-08T17:08:09.733Z,25.40
2018-07-08T17:13:02.978Z,25.20
2018-07-08T17:15:31.205Z,25.30
2018-07-08T17:17:59.009Z,25.20
2018-07-08T17:20:26.840Z,25.40
2018-07-08T17:22:54.926Z,25.40
2018-07-08T17:25:22.722Z,25.20
2018-07-08T17:27:50.559Z,24.50
2018-07-08T17:30:18.380Z,23.70
2018-07-08T17:32:46.497Z,23.10
2018-07-08T17:35:14.362Z,22.80
2018-07-08T17:37:42.286Z,22.60
2018-07-08T17:40:10.151Z,22.50
2018-07-08T17:42:38.993Z,22.50
2018-07-08T17:45:06.888Z,22.40
2018-07-08T17:47:34.643Z,22.40
2018-07-08T17:50:24.648Z,22.40
2018-07-08T17:52:52.891Z,22.30
2018-07-08T17:55:20.817Z,22.20
2018-07-08T17:57:48.797Z,22.20
2018-07-08T18:00:16.733Z,22.20
2018-07-08T18:02:46.895Z,22.20
2018-07-08T18:05:14.804Z,22.20
2018-07-08T18:07:42.899Z,22.20
2018-07-08T18:10:10.822Z,22.60
2018-07-08T18:12:38.888Z,22.70
2018-07-08T18:15:06.865Z,22.50
2018-07-08T18:17:34.878Z,22.20
2018-07-08T18:20:02.973Z,22.10
2018-07-08T18:22:31.233Z,22.00
2018-07-08T18:24:59.239Z,21.90
2018-07-08T18:27:27.284Z,21.80
2018-07-08T18:29:55.201Z,21.90
2018-07-08T18:32:23.282Z,21.80
2018-07-08T18:34:51.223Z,21.70
2018-07-08T18:37:19.417Z,21.60
2018-07-08T18:39:47.823Z,21.50
2018-07-08T18:42:15.712Z,21.50
2018-07-08T18:44:43.524Z,21.40
2018-07-08T18:47:11.408Z,21.30
2018-07-08T18:49:39.305Z,21.30
2018-07-08T18:52:07.050Z,21.30
2018-07-08T18:54:35.028Z,21.30
2018-07-08T18:57:02.881Z,21.20
2018-07-08T18:59:30.932Z,21.00
2018-07-08T19:01:58.794Z,20.90
2018-07-08T19:04:26.869Z,20.90
2018-07-08T19:06:54.878Z,20.80
2018-07-08T19:09:39.071Z,20.70
2018-07-08T19:12:06.998Z,20.70
2018-07-08T19:17:15.398Z,20.50
2018-07-08T19:19:43.258Z,20.40
2018-07-08T19:22:11.035Z,20.30
2018-07-08T19:24:39.815Z,20.20
2018-07-08T19:27:07.640Z,20.10
2018-07-08T19:29:35.606Z,20.00
2018-07-08T19:32:03.441Z,19.90
2018-07-08T19:34:31.657Z,19.90
2018-07-08T19:41:36.538Z,19.70
2018-07-08T19:44:04.445Z,19.60
2018-07-08T19:46:32.364Z,19.50
2018-07-08T19:49:00.372Z,19.40
2018-07-08T19:51:55.071Z,19.20
2018-07-08T19:54:23.891Z,19.20
2018-07-08T19:56:51.684Z,19.10
2018-07-08T19:59:19.500Z,19.00
2018-07-08T20:01:47.320Z,18.80
2018-07-08T20:04:15.162Z,18.80
2018-07-08T20:06:43.571Z,18.70
2018-07-08T20:09:12.144Z,18.60
2018-07-08T20:11:40.514Z,18.60
2018-07-08T20:14:45.203Z,18.50
2018-07-08T20:17:13.001Z,18.50
2018-07-08T20:19:40.840Z,18.40
2018-07-08T20:22:08.669Z,18.30
2018-07-08T20:24:36.392Z,18.20
2018-07-08T20:27:04.397Z,18.10
2018-07-08T20:29:32.556Z,18.10
2018-07-08T20:32:00.311Z,18.00
2018-07-08T20:34:28.119Z,18.00
2018-07-08T20:36:56.977Z,17.90
2018-07-08T20:39:24.776Z,17.80
2018-07-08T20:41:52.647Z,17.70
2018-07-08T20:44:20.413Z,17.70
2018-07-08T20:46:48.206Z,17.60
2018-07-08T20:49:15.996Z,17.60
2018-07-08T20:52:00.354Z,17.50
2018-07-08T20:54:28.365Z,17.50
2018-07-08T20:56:56.389Z,17.40
2018-07-08T20:59:24.264Z,17.30
2018-07-08T21:01:52.014Z,17.20
2018-07-08T21:04:20.538Z,17.20
2018-07-08T21:06:48.374Z,17.20
2018-07-08T21:09:16.165Z,17.20
2018-07-08T21:11:44.021Z,17.00
2018-07-08T21:14:11.856Z,17.00
2018-07-08T21:17:10.172Z,16.90
2018-07-08T21:19:38.027Z,16.90
2018-07-08T21:22:05.925Z,16.90
2018-07-08T21:24:33.743Z,17.00
2018-07-08T21:27:01.562Z,17.00
2018-07-08T21:29:29.394Z,17.00
2018-07-08T21:32:20.082Z,17.10
2018-07-08T21:34:48.125Z,17.10
2018-07-08T21:37:16.398Z,17.10
2018-07-08T21:42:23.533Z,17.00
2018-07-08T21:44:51.423Z,17.00
2018-07-08T21:47:19.830Z,17.10
2018-07-08T21:49:47.652Z,17.10
2018-07-08T21:52:15.722Z,17.10
2018-07-08T21:54:43.632Z,17.10
2018-07-08T21:57:11.488Z,17.20
2018-07-08T21:59:39.248Z,17.20
2018-07-08T22:02:15.669Z,17.20
2018-07-08T22:04:43.530Z,17.20
2018-07-08T22:07:16.994Z,17.10
2018-07-08T22:09:44.790Z,17.00
2018-07-08T22:12:12.536Z,16.80
2018-07-08T22:14:40.362Z,16.70
2018-07-08T22:17:09.129Z,16.60
2018-07-08T22:19:37.983Z,16.60
2018-07-08T22:22:05.873Z,16.40
2018-07-08T22:24:33.646Z,16.30
2018-07-08T22:27:01.525Z,16.20
2018-07-08T22:29:29.353Z,16.10
2018-07-08T22:31:57.150Z,16.20
2018-07-08T22:34:24.993Z,16.10
2018-07-08T22:36:53.197Z,16.10
2018-07-08T22:39:21.046Z,16.10
2018-07-08T22:41:48.842Z,16.10
2018-07-08T22:44:16.635Z,16.20
2018-07-08T22:46:44.435Z,16.20
2018-07-08T22:49:12.180Z,16.20
2018-07-08T22:51:39.974Z,16.30
2018-07-08T22:54:07.761Z,16.40
2018-07-08T22:56:36.587Z,16.40
2018-07-08T22:59:04.583Z,16.40
2018-07-08T23:01:43.615Z,16.30
2018-07-08T23:04:11.762Z,16.30
2018-07-08T23:06:39.571Z,16.30
2018-07-08T23:09:07.477Z,16.10
2018-07-08T23:11:35.309Z,16.10
2018-07-08T23:14:03.147Z,16.00
2018-07-08T23:19:34.923Z,15.80
2018-07-08T23:22:02.755Z,15.60
2018-07-08T23:24:30.543Z,15.40
2018-07-08T23:26:58.436Z,15.40
2018-07-08T23:29:26.201Z,15.30
2018-07-08T23:31:54.015Z,15.20
2018-07-08T23:34:21.830Z,15.40
2018-07-08T23:36:51.605Z,15.30
2018-07-08T23:39:19.403Z,15.20
2018-07-08T23:41:47.234Z,15.20
2018-07-08T23:44:15.107Z,15.20
2018-07-08T23:46:42.870Z,15.30
2018-07-08T23:49:10.707Z,15.40
2018-07-08T23:51:38.519Z,15.60
2018-07-08T23:54:06.308Z,15.70
2018-07-08T23:57:08.414Z,15.70
2018-07-08T23:59:52.805Z,15.80
